sensor_id;sensor_type;location;lat;lon;timestamp;pressure;altitude;pressure_sealevel;temperature;humidity
53659;BME280;41524;35.624;139.698;2023-04-16T00:00:11;99251.00;;;14.20;74.58
53659;BME280;41524;35.624;139.698;2023-04-16T00:05:16;99245.00;;;15.00;72.31
53659;BME280;41524;35.624;139.698;2023-04-16T00:10:21;99230.00;;;14.81;72.89
53659;BME280;41524;35.624;139.698;2023-04-16T00:15:11;99237.00;;;15.89;70.84
53659;BME280;41524;35.624;139.698;2023-04-16T00:20:11;99232.00;;;15.43;70.63
53659;BME280;41524;35.624;139.698;2023-04-16T00:25:16;99252.00;;;16.83;68.92
53659;BME280;41524;35.624;139.698;2023-04-16T00:30:10;99291.00;;;16.25;69.37
53659;BME280;41524;35.624;139.698;2023-04-16T00:35:15;99300.00;;;16.80;68.07
53659;BME280;41524;35.624;139.698;2023-04-16T00:40:11;99298.00;;;16.73;67.52
53659;BME280;41524;35.624;139.698;2023-04-16T00:45:15;99290.00;;;17.98;66.17
53659;BME280;41524;35.624;139.698;2023-04-16T00:50:17;99292.00;;;17.36;66.77
53659;BME280;41524;35.624;139.698;2023-04-16T00:55:16;99278.00;;;17.85;65.28
53659;BME280;41524;35.624;139.698;2023-04-16T01:00:16;99259.00;;;15.86;69.87
53659;BME280;41524;35.624;139.698;2023-04-16T01:05:11;99261.00;;;16.19;68.24
53659;BME280;41524;35.624;139.698;2023-04-16T01:10:15;99287.00;;;17.76;66.39
53659;BME280;41524;35.624;139.698;2023-04-16T01:15:11;99304.00;;;18.42;64.08
53659;BME280;41524;35.624;139.698;2023-04-16T01:20:14;99286.00;;;18.83;62.20
53659;BME280;41524;35.624;139.698;2023-04-16T01:25:14;99296.00;;;19.64;60.43
53659;BME280;41524;35.624;139.698;2023-04-16T01:30:19;99298.00;;;17.98;64.94
53659;BME280;41524;35.624;139.698;2023-04-16T01:35:11;99290.00;;;18.79;62.34
53659;BME280;41524;35.624;139.698;2023-04-16T01:40:15;99293.00;;;17.96;64.28
53659;BME280;41524;35.624;139.698;2023-04-16T01:45:16;99295.00;;;20.38;58.68
53659;BME280;41524;35.624;139.698;2023-04-16T01:50:16;99295.00;;;18.92;60.93
53659;BME280;41524;35.624;139.698;2023-04-16T01:55:10;99291.00;;;18.95;62.06
53659;BME280;41524;35.624;139.698;2023-04-16T02:00:16;99288.00;;;18.57;61.80
53659;BME280;41524;35.624;139.698;2023-04-16T02:05:10;99287.00;;;20.18;57.48
53659;BME280;41524;35.624;139.698;2023-04-16T02:10:11;99275.00;;;19.57;59.86
53659;BME280;41524;35.624;139.698;2023-04-16T02:15:27;99279.00;;;20.52;55.20
53659;BME280;41524;35.624;139.698;2023-04-16T02:20:11;99253.00;;;19.44;58.16
53659;BME280;41524;35.624;139.698;2023-04-16T02:25:16;99241.00;;;20.56;55.72
53659;BME280;41524;35.624;139.698;2023-04-16T02:30:15;99234.00;;;19.71;56.65
53659;BME280;41524;35.624;139.698;2023-04-16T02:35:15;99236.00;;;19.89;56.18
53659;BME280;41524;35.624;139.698;2023-04-16T02:40:11;99221.00;;;18.29;59.81
53659;BME280;41524;35.624;139.698;2023-04-16T02:45:11;99222.00;;;18.72;56.18
53659;BME280;41524;35.624;139.698;2023-04-16T02:50:16;99239.00;;;18.79;55.37
53659;BME280;41524;35.624;139.698;2023-04-16T02:55:12;99238.00;;;19.76;53.04
53659;BME280;41524;35.624;139.698;2023-04-16T03:00:16;99230.00;;;18.97;52.32
53659;BME280;41524;35.624;139.698;2023-04-16T03:05:13;99221.00;;;19.05;53.27
53659;BME280;41524;35.624;139.698;2023-04-16T03:10:10;99217.00;;;19.20;53.96
53659;BME280;41524;35.624;139.698;2023-04-16T03:15:11;99213.00;;;17.76;58.02
53659;BME280;41524;35.624;139.698;2023-04-16T03:20:16;99207.00;;;17.84;58.48
53659;BME280;41524;35.624;139.698;2023-04-16T03:25:15;99209.00;;;19.61;52.92
53659;BME280;41524;35.624;139.698;2023-04-16T03:30:16;99215.00;;;19.19;54.38
53659;BME280;41524;35.624;139.698;2023-04-16T03:35:12;99231.00;;;19.62;52.46
53659;BME280;41524;35.624;139.698;2023-04-16T03:40:18;99233.00;;;20.03;53.36
53659;BME280;41524;35.624;139.698;2023-04-16T03:45:16;99235.00;;;19.61;52.70
53659;BME280;41524;35.624;139.698;2023-04-16T03:50:11;99230.00;;;19.44;53.58
53659;BME280;41524;35.624;139.698;2023-04-16T03:55:17;99209.00;;;19.90;53.12
53659;BME280;41524;35.624;139.698;2023-04-16T04:00:15;99202.00;;;21.40;47.93
53659;BME280;41524;35.624;139.698;2023-04-16T04:05:10;99205.00;;;21.00;48.38
53659;BME280;41524;35.624;139.698;2023-04-16T04:10:15;99202.00;;;20.78;48.28
53659;BME280;41524;35.624;139.698;2023-04-16T04:15:11;99205.00;;;20.08;47.64
53659;BME280;41524;35.624;139.698;2023-04-16T04:20:12;99226.00;;;20.13;46.82
53659;BME280;41524;35.624;139.698;2023-04-16T04:25:11;99212.00;;;19.86;46.83
53659;BME280;41524;35.624;139.698;2023-04-16T04:30:12;99219.00;;;19.37;47.03
53659;BME280;41524;35.624;139.698;2023-04-16T04:35:11;99197.00;;;17.95;48.59
53659;BME280;41524;35.624;139.698;2023-04-16T04:40:15;99213.00;;;20.30;47.28
53659;BME280;41524;35.624;139.698;2023-04-16T04:45:12;99191.00;;;18.55;50.29
53659;BME280;41524;35.624;139.698;2023-04-16T04:50:19;99204.00;;;18.59;48.11
53659;BME280;41524;35.624;139.698;2023-04-16T04:55:11;99205.00;;;18.08;47.30
53659;BME280;41524;35.624;139.698;2023-04-16T05:00:16;99251.00;;;17.99;48.33
53659;BME280;41524;35.624;139.698;2023-04-16T05:05:16;99235.00;;;18.14;49.63
53659;BME280;41524;35.624;139.698;2023-04-16T05:10:11;99259.00;;;17.73;51.83
53659;BME280;41524;35.624;139.698;2023-04-16T05:15:11;99243.00;;;17.98;52.56
53659;BME280;41524;35.624;139.698;2023-04-16T05:20:11;99233.00;;;18.18;48.25
53659;BME280;41524;35.624;139.698;2023-04-16T05:25:11;99235.00;;;17.13;51.99
53659;BME280;41524;35.624;139.698;2023-04-16T05:30:11;99213.00;;;17.54;55.42
53659;BME280;41524;35.624;139.698;2023-04-16T05:35:21;99228.00;;;18.04;53.61
53659;BME280;41524;35.624;139.698;2023-04-16T05:40:15;99210.00;;;18.60;53.52
53659;BME280;41524;35.624;139.698;2023-04-16T05:45:18;99214.00;;;18.60;54.45
53659;BME280;41524;35.624;139.698;2023-04-16T05:50:16;99222.00;;;19.58;52.38
53659;BME280;41524;35.624;139.698;2023-04-16T05:55:11;99216.00;;;19.20;52.37
53659;BME280;41524;35.624;139.698;2023-04-16T06:00:11;99204.00;;;20.09;47.33
53659;BME280;41524;35.624;139.698;2023-04-16T06:05:17;99190.00;;;20.30;47.18
53659;BME280;41524;35.624;139.698;2023-04-16T06:10:17;99182.00;;;19.81;46.49
53659;BME280;41524;35.624;139.698;2023-04-16T06:15:11;99186.00;;;18.93;49.79
53659;BME280;41524;35.624;139.698;2023-04-16T06:20:12;99203.00;;;19.10;49.14
53659;BME280;41524;35.624;139.698;2023-04-16T06:25:17;99210.00;;;19.04;49.21
53659;BME280;41524;35.624;139.698;2023-04-16T06:30:13;99225.00;;;19.79;48.34
53659;BME280;41524;35.624;139.698;2023-04-16T06:35:11;99221.00;;;18.42;51.74
53659;BME280;41524;35.624;139.698;2023-04-16T06:40:11;99207.00;;;19.07;49.95
53659;BME280;41524;35.624;139.698;2023-04-16T06:45:15;99208.00;;;19.07;47.90
53659;BME280;41524;35.624;139.698;2023-04-16T06:50:11;99183.00;;;17.75;45.95
53659;BME280;41524;35.624;139.698;2023-04-16T06:55:15;99201.00;;;17.74;46.67
53659;BME280;41524;35.624;139.698;2023-04-16T07:00:15;99217.00;;;18.67;45.98
53659;BME280;41524;35.624;139.698;2023-04-16T07:05:11;99243.00;;;19.31;45.98
53659;BME280;41524;35.624;139.698;2023-04-16T07:10:15;99230.00;;;19.42;47.82
53659;BME280;41524;35.624;139.698;2023-04-16T07:15:11;99287.00;;;19.23;50.09
53659;BME280;41524;35.624;139.698;2023-04-16T07:20:13;99297.00;;;18.98;54.40
53659;BME280;41524;35.624;139.698;2023-04-16T07:25:11;99312.00;;;18.54;56.77
53659;BME280;41524;35.624;139.698;2023-04-16T07:30:15;99289.00;;;18.67;57.10
53659;BME280;41524;35.624;139.698;2023-04-16T07:35:11;99310.00;;;18.37;56.80
53659;BME280;41524;35.624;139.698;2023-04-16T07:40:12;99308.00;;;18.58;56.63
53659;BME280;41524;35.624;139.698;2023-04-16T07:45:11;99323.00;;;17.81;56.29
53659;BME280;41524;35.624;139.698;2023-04-16T07:50:12;99312.00;;;19.03;54.62
53659;BME280;41524;35.624;139.698;2023-04-16T07:55:11;99330.00;;;18.62;54.77
53659;BME280;41524;35.624;139.698;2023-04-16T08:00:21;99319.00;;;18.29;55.13
53659;BME280;41524;35.624;139.698;2023-04-16T08:05:11;99338.00;;;19.28;53.35
53659;BME280;41524;35.624;139.698;2023-04-16T08:10:15;99359.00;;;18.73;54.58
53659;BME280;41524;35.624;139.698;2023-04-16T08:15:11;99340.00;;;19.40;53.80
53659;BME280;41524;35.624;139.698;2023-04-16T08:20:16;99341.00;;;17.09;57.98
53659;BME280;41524;35.624;139.698;2023-04-16T08:25:11;99349.00;;;19.04;53.58
53659;BME280;41524;35.624;139.698;2023-04-16T08:30:16;99368.00;;;16.14;58.53
53659;BME280;41524;35.624;139.698;2023-04-16T08:35:11;99398.00;;;18.09;54.75
53659;BME280;41524;35.624;139.698;2023-04-16T08:40:11;99388.00;;;19.63;51.72
53659;BME280;41524;35.624;139.698;2023-04-16T08:45:16;99397.00;;;19.10;54.39
53659;BME280;41524;35.624;139.698;2023-04-16T08:50:12;99407.00;;;19.94;53.03
53659;BME280;41524;35.624;139.698;2023-04-16T08:55:22;99418.00;;;18.52;53.44
53659;BME280;41524;35.624;139.698;2023-04-16T09:00:11;99424.00;;;19.12;52.09
53659;BME280;41524;35.624;139.698;2023-04-16T09:05:16;99436.00;;;18.84;53.12
53659;BME280;41524;35.624;139.698;2023-04-16T09:10:15;99447.00;;;18.45;53.88
53659;BME280;41524;35.624;139.698;2023-04-16T09:15:12;99451.00;;;18.58;53.60
53659;BME280;41524;35.624;139.698;2023-04-16T09:20:16;99473.00;;;18.49;53.57
53659;BME280;41524;35.624;139.698;2023-04-16T09:25:16;99481.00;;;18.44;53.53
53659;BME280;41524;35.624;139.698;2023-04-16T09:30:28;99500.00;;;18.57;52.95
53659;BME280;41524;35.624;139.698;2023-04-16T09:35:19;99518.00;;;18.04;53.64
53659;BME280;41524;35.624;139.698;2023-04-16T09:40:24;99528.00;;;17.68;54.42
53659;BME280;41524;35.624;139.698;2023-04-16T09:45:17;99541.00;;;17.86;53.59
53659;BME280;41524;35.624;139.698;2023-04-16T09:50:15;99551.00;;;17.62;54.02
53659;BME280;41524;35.624;139.698;2023-04-16T09:55:10;99554.00;;;17.74;48.78
53659;BME280;41524;35.624;139.698;2023-04-16T10:00:17;99566.00;;;17.09;46.46
53659;BME280;41524;35.624;139.698;2023-04-16T10:05:14;99574.00;;;17.62;44.78
53659;BME280;41524;35.624;139.698;2023-04-16T10:10:19;99584.00;;;17.49;43.09
53659;BME280;41524;35.624;139.698;2023-04-16T10:15:15;99589.00;;;17.76;41.76
53659;BME280;41524;35.624;139.698;2023-04-16T10:20:16;99591.00;;;17.65;40.68
53659;BME280;41524;35.624;139.698;2023-04-16T10:25:10;99601.00;;;17.21;40.03
53659;BME280;41524;35.624;139.698;2023-04-16T10:30:11;99620.00;;;16.60;40.38
53659;BME280;41524;35.624;139.698;2023-04-16T10:35:20;99631.00;;;16.27;40.93
53659;BME280;41524;35.624;139.698;2023-04-16T10:40:26;99639.00;;;16.61;40.51
53659;BME280;41524;35.624;139.698;2023-04-16T10:45:11;99644.00;;;16.24;41.18
53659;BME280;41524;35.624;139.698;2023-04-16T10:50:16;99658.00;;;16.74;40.44
53659;BME280;41524;35.624;139.698;2023-04-16T10:55:17;99667.00;;;17.44;40.12
53659;BME280;41524;35.624;139.698;2023-04-16T11:00:23;99673.00;;;16.50;41.48
53659;BME280;41524;35.624;139.698;2023-04-16T11:05:13;99686.00;;;16.62;42.92
53659;BME280;41524;35.624;139.698;2023-04-16T11:10:13;99695.00;;;16.75;52.85
53659;BME280;41524;35.624;139.698;2023-04-16T11:15:12;99714.00;;;15.65;59.38
53659;BME280;41524;35.624;139.698;2023-04-16T11:20:22;99710.00;;;16.89;57.54
53659;BME280;41524;35.624;139.698;2023-04-16T11:25:21;99722.00;;;16.11;60.33
53659;BME280;41524;35.624;139.698;2023-04-16T11:30:11;99734.00;;;16.30;58.86
53659;BME280;41524;35.624;139.698;2023-04-16T11:35:15;99750.00;;;16.55;58.52
53659;BME280;41524;35.624;139.698;2023-04-16T11:40:26;99769.00;;;14.06;66.89
53659;BME280;41524;35.624;139.698;2023-04-16T11:45:12;99787.00;;;15.92;61.09
53659;BME280;41524;35.624;139.698;2023-04-16T11:50:19;99813.00;;;16.15;60.04
53659;BME280;41524;35.624;139.698;2023-04-16T11:55:16;99827.00;;;16.07;59.49
53659;BME280;41524;35.624;139.698;2023-04-16T12:00:12;99840.00;;;16.39;59.08
53659;BME280;41524;35.624;139.698;2023-04-16T12:05:34;99853.00;;;15.47;59.38
53659;BME280;41524;35.624;139.698;2023-04-16T12:10:13;99867.00;;;16.14;57.69
53659;BME280;41524;35.624;139.698;2023-04-16T12:15:17;99873.00;;;15.99;56.88
53659;BME280;41524;35.624;139.698;2023-04-16T12:20:13;99875.00;;;15.92;58.44
53659;BME280;41524;35.624;139.698;2023-04-16T12:25:13;99865.00;;;16.50;57.02
53659;BME280;41524;35.624;139.698;2023-04-16T12:30:13;99867.00;;;16.09;58.14
53659;BME280;41524;35.624;139.698;2023-04-16T12:35:30;99869.00;;;16.07;58.32
53659;BME280;41524;35.624;139.698;2023-04-16T12:40:11;99871.00;;;16.00;59.04
53659;BME280;41524;35.624;139.698;2023-04-16T12:45:10;99870.00;;;16.01;59.08
53659;BME280;41524;35.624;139.698;2023-04-16T12:50:16;99873.00;;;15.99;58.68
53659;BME280;41524;35.624;139.698;2023-04-16T12:55:25;99870.00;;;15.22;61.05
53659;BME280;41524;35.624;139.698;2023-04-16T13:00:21;99870.00;;;16.12;59.88
53659;BME280;41524;35.624;139.698;2023-04-16T13:05:11;99870.00;;;15.59;59.81
53659;BME280;41524;35.624;139.698;2023-04-16T13:10:26;99870.00;;;15.54;60.00
53659;BME280;41524;35.624;139.698;2023-04-16T13:20:11;99877.00;;;15.92;58.38
53659;BME280;41524;35.624;139.698;2023-04-16T13:25:11;99883.00;;;15.14;59.04
53659;BME280;41524;35.624;139.698;2023-04-16T13:30:13;99899.00;;;15.29;58.27
53659;BME280;41524;35.624;139.698;2023-04-16T13:35:12;99898.00;;;14.60;56.27
53659;BME280;41524;35.624;139.698;2023-04-16T13:40:16;99910.00;;;14.69;53.60
53659;BME280;41524;35.624;139.698;2023-04-16T13:50:11;99915.00;;;14.95;45.82
53659;BME280;41524;35.624;139.698;2023-04-16T13:55:11;99920.00;;;14.18;44.83
53659;BME280;41524;35.624;139.698;2023-04-16T14:00:12;99931.00;;;13.86;43.82
53659;BME280;41524;35.624;139.698;2023-04-16T14:05:10;99937.00;;;13.81;43.54
53659;BME280;41524;35.624;139.698;2023-04-16T14:10:11;99922.00;;;14.20;42.81
53659;BME280;41524;35.624;139.698;2023-04-16T14:15:15;99927.00;;;14.68;41.57
53659;BME280;41524;35.624;139.698;2023-04-16T14:20:19;99939.00;;;14.27;42.16
53659;BME280;41524;35.624;139.698;2023-04-16T14:25:15;99952.00;;;14.66;41.61
53659;BME280;41524;35.624;139.698;2023-04-16T14:30:15;99948.00;;;14.01;41.35
53659;BME280;41524;35.624;139.698;2023-04-16T14:35:12;99930.00;;;14.38;40.93
53659;BME280;41524;35.624;139.698;2023-04-16T14:40:16;99933.00;;;14.25;40.00
53659;BME280;41524;35.624;139.698;2023-04-16T14:45:16;99936.00;;;14.33;39.43
53659;BME280;41524;35.624;139.698;2023-04-16T14:50:11;99941.00;;;14.87;38.36
53659;BME280;41524;35.624;139.698;2023-04-16T14:55:10;99945.00;;;14.66;38.90
53659;BME280;41524;35.624;139.698;2023-04-16T15:00:12;99953.00;;;15.18;38.19
53659;BME280;41524;35.624;139.698;2023-04-16T15:05:16;99950.00;;;15.31;38.93
53659;BME280;41524;35.624;139.698;2023-04-16T15:10:11;99953.00;;;15.20;37.92
53659;BME280;41524;35.624;139.698;2023-04-16T15:15:12;99960.00;;;14.43;38.37
53659;BME280;41524;35.624;139.698;2023-04-16T15:20:15;99963.00;;;14.59;38.03
53659;BME280;41524;35.624;139.698;2023-04-16T15:25:16;99957.00;;;14.39;38.26
53659;BME280;41524;35.624;139.698;2023-04-16T15:30:11;99966.00;;;14.53;38.30
53659;BME280;41524;35.624;139.698;2023-04-16T15:35:11;99977.00;;;13.91;39.07
53659;BME280;41524;35.624;139.698;2023-04-16T15:40:11;99984.00;;;13.62;39.67
53659;BME280;41524;35.624;139.698;2023-04-16T15:45:16;99972.00;;;13.91;39.55
53659;BME280;41524;35.624;139.698;2023-04-16T15:50:11;99951.00;;;14.47;38.66
53659;BME280;41524;35.624;139.698;2023-04-16T15:55:11;99930.00;;;14.70;37.39
53659;BME280;41524;35.624;139.698;2023-04-16T16:00:12;99922.00;;;15.87;35.90
53659;BME280;41524;35.624;139.698;2023-04-16T16:05:12;99941.00;;;14.73;37.03
53659;BME280;41524;35.624;139.698;2023-04-16T16:10:12;99952.00;;;14.54;36.81
53659;BME280;41524;35.624;139.698;2023-04-16T16:15:11;99964.00;;;14.79;36.58
53659;BME280;41524;35.624;139.698;2023-04-16T16:20:10;99981.00;;;15.38;36.01
53659;BME280;41524;35.624;139.698;2023-04-16T16:25:15;99981.00;;;14.49;36.74
53659;BME280;41524;35.624;139.698;2023-04-16T16:30:18;99974.00;;;15.20;36.52
53659;BME280;41524;35.624;139.698;2023-04-16T16:35:12;99971.00;;;15.19;36.08
53659;BME280;41524;35.624;139.698;2023-04-16T16:40:11;99979.00;;;15.82;35.96
53659;BME280;41524;35.624;139.698;2023-04-16T16:45:13;100006.00;;;14.55;37.75
53659;BME280;41524;35.624;139.698;2023-04-16T16:50:11;100003.00;;;14.50;38.06
53659;BME280;41524;35.624;139.698;2023-04-16T16:55:15;100006.00;;;13.70;42.26
53659;BME280;41524;35.624;139.698;2023-04-16T17:00:16;100014.00;;;13.65;45.56
53659;BME280;41524;35.624;139.698;2023-04-16T17:05:11;100015.00;;;13.32;44.75
53659;BME280;41524;35.624;139.698;2023-04-16T17:10:11;100031.00;;;13.02;44.22
53659;BME280;41524;35.624;139.698;2023-04-16T17:15:12;100030.00;;;13.59;45.71
53659;BME280;41524;35.624;139.698;2023-04-16T17:20:10;100028.00;;;12.90;49.06
53659;BME280;41524;35.624;139.698;2023-04-16T17:25:11;99997.00;;;13.30;51.24
53659;BME280;41524;35.624;139.698;2023-04-16T17:30:11;99978.00;;;12.27;53.96
53659;BME280;41524;35.624;139.698;2023-04-16T17:35:11;99978.00;;;13.00;49.61
53659;BME280;41524;35.624;139.698;2023-04-16T17:40:12;99972.00;;;13.48;50.42
53659;BME280;41524;35.624;139.698;2023-04-16T17:45:11;99976.00;;;12.55;48.22
53659;BME280;41524;35.624;139.698;2023-04-16T17:50:11;99946.00;;;12.97;47.35
53659;BME280;41524;35.624;139.698;2023-04-16T17:55:11;99947.00;;;12.72;47.35
53659;BME280;41524;35.624;139.698;2023-04-16T18:00:12;99949.00;;;12.97;46.23
53659;BME280;41524;35.624;139.698;2023-04-16T18:05:10;99967.00;;;13.08;46.16
53659;BME280;41524;35.624;139.698;2023-04-16T18:10:11;99972.00;;;12.60;43.70
53659;BME280;41524;35.624;139.698;2023-04-16T18:15:11;99970.00;;;13.37;42.61
53659;BME280;41524;35.624;139.698;2023-04-16T18:20:11;99972.00;;;13.16;43.27
53659;BME280;41524;35.624;139.698;2023-04-16T18:25:11;99968.00;;;12.98;41.88
53659;BME280;41524;35.624;139.698;2023-04-16T18:30:13;99972.00;;;12.83;42.26
53659;BME280;41524;35.624;139.698;2023-04-16T18:35:11;99981.00;;;12.65;42.48
53659;BME280;41524;35.624;139.698;2023-04-16T18:40:17;99992.00;;;12.40;41.93
53659;BME280;41524;35.624;139.698;2023-04-16T18:45:17;100001.00;;;12.40;41.08
53659;BME280;41524;35.624;139.698;2023-04-16T18:50:11;100014.00;;;12.74;41.45
53659;BME280;41524;35.624;139.698;2023-04-16T18:55:10;100018.00;;;12.39;41.12
53659;BME280;41524;35.624;139.698;2023-04-16T19:00:16;100020.00;;;13.03;40.75
53659;BME280;41524;35.624;139.698;2023-04-16T19:05:11;100017.00;;;12.66;40.13
53659;BME280;41524;35.624;139.698;2023-04-16T19:10:11;100012.00;;;12.89;40.58
53659;BME280;41524;35.624;139.698;2023-04-16T19:15:13;100008.00;;;12.94;39.64
53659;BME280;41524;35.624;139.698;2023-04-16T19:20:11;100015.00;;;12.69;40.10
53659;BME280;41524;35.624;139.698;2023-04-16T19:25:11;100024.00;;;12.41;40.58
53659;BME280;41524;35.624;139.698;2023-04-16T19:30:11;100029.00;;;12.15;40.75
53659;BME280;41524;35.624;139.698;2023-04-16T19:35:12;100043.00;;;12.14;39.68
53659;BME280;41524;35.624;139.698;2023-04-16T19:40:12;100062.00;;;12.12;40.72
53659;BME280;41524;35.624;139.698;2023-04-16T19:45:11;100088.00;;;12.72;39.66
53659;BME280;41524;35.624;139.698;2023-04-16T19:50:12;100094.00;;;12.59;39.68
53659;BME280;41524;35.624;139.698;2023-04-16T19:55:11;100107.00;;;12.20;39.64
53659;BME280;41524;35.624;139.698;2023-04-16T20:00:13;100107.00;;;12.35;38.55
53659;BME280;41524;35.624;139.698;2023-04-16T20:05:10;100123.00;;;12.72;38.71
53659;BME280;41524;35.624;139.698;2023-04-16T20:10:16;100136.00;;;12.29;38.39
53659;BME280;41524;35.624;139.698;2023-04-16T20:15:12;100144.00;;;13.77;37.48
53659;BME280;41524;35.624;139.698;2023-04-16T20:20:11;100149.00;;;12.91;37.88
53659;BME280;41524;35.624;139.698;2023-04-16T20:25:11;100157.00;;;12.99;37.86
53659;BME280;41524;35.624;139.698;2023-04-16T20:30:12;100171.00;;;13.37;37.50
53659;BME280;41524;35.624;139.698;2023-04-16T20:35:11;100175.00;;;12.37;38.05
53659;BME280;41524;35.624;139.698;2023-04-16T20:40:16;100191.00;;;11.91;38.52
53659;BME280;41524;35.624;139.698;2023-04-16T20:45:11;100202.00;;;13.12;37.97
53659;BME280;41524;35.624;139.698;2023-04-16T20:50:15;100207.00;;;12.69;37.91
53659;BME280;41524;35.624;139.698;2023-04-16T20:55:17;100207.00;;;12.84;37.64
53659;BME280;41524;35.624;139.698;2023-04-16T21:00:11;100215.00;;;12.93;37.21
53659;BME280;41524;35.624;139.698;2023-04-16T21:05:12;100223.00;;;13.46;36.77
53659;BME280;41524;35.624;139.698;2023-04-16T21:10:11;100226.00;;;13.37;37.03
53659;BME280;41524;35.624;139.698;2023-04-16T21:15:16;100234.00;;;13.71;36.36
53659;BME280;41524;35.624;139.698;2023-04-16T21:20:11;100248.00;;;13.61;36.11
53659;BME280;41524;35.624;139.698;2023-04-16T21:25:11;100258.00;;;13.57;36.50
53659;BME280;41524;35.624;139.698;2023-04-16T21:30:12;100260.00;;;13.57;36.69
53659;BME280;41524;35.624;139.698;2023-04-16T21:35:16;100275.00;;;13.58;37.11
53659;BME280;41524;35.624;139.698;2023-04-16T21:40:16;100283.00;;;13.36;37.72
53659;BME280;41524;35.624;139.698;2023-04-16T21:45:11;100288.00;;;13.83;36.57
53659;BME280;41524;35.624;139.698;2023-04-16T21:50:12;100290.00;;;14.08;36.75
53659;BME280;41524;35.624;139.698;2023-04-16T21:55:12;100298.00;;;13.84;36.36
53659;BME280;41524;35.624;139.698;2023-04-16T22:00:22;100310.00;;;14.28;37.26
53659;BME280;41524;35.624;139.698;2023-04-16T22:05:11;100322.00;;;13.55;36.99
53659;BME280;41524;35.624;139.698;2023-04-16T22:10:11;100338.00;;;12.93;38.10
53659;BME280;41524;35.624;139.698;2023-04-16T22:15:11;100350.00;;;13.34;39.55
53659;BME280;41524;35.624;139.698;2023-04-16T22:20:12;100359.00;;;12.88;38.96
53659;BME280;41524;35.624;139.698;2023-04-16T22:25:11;100371.00;;;12.66;39.82
53659;BME280;41524;35.624;139.698;2023-04-16T22:30:11;100378.00;;;12.20;41.99
53659;BME280;41524;35.624;139.698;2023-04-16T22:35:11;100391.00;;;12.98;40.89
53659;BME280;41524;35.624;139.698;2023-04-16T22:40:11;100400.00;;;14.03;40.42
53659;BME280;41524;35.624;139.698;2023-04-16T22:45:12;100410.00;;;13.68;41.41
53659;BME280;41524;35.624;139.698;2023-04-16T22:50:12;100418.00;;;14.16;39.60
53659;BME280;41524;35.624;139.698;2023-04-16T22:55:12;100424.00;;;14.15;40.19
53659;BME280;41524;35.624;139.698;2023-04-16T23:00:11;100440.00;;;14.42;39.00
53659;BME280;41524;35.624;139.698;2023-04-16T23:05:17;100461.00;;;14.94;37.63
53659;BME280;41524;35.624;139.698;2023-04-16T23:10:12;100476.00;;;14.73;36.13
53659;BME280;41524;35.624;139.698;2023-04-16T23:15:12;100479.00;;;14.82;37.84
53659;BME280;41524;35.624;139.698;2023-04-16T23:20:16;100484.00;;;14.76;35.74
53659;BME280;41524;35.624;139.698;2023-04-16T23:25:11;100496.00;;;14.56;35.37
53659;BME280;41524;35.624;139.698;2023-04-16T23:30:11;100511.00;;;14.94;35.24
53659;BME280;41524;35.624;139.698;2023-04-16T23:35:11;100523.00;;;15.31;35.21
53659;BME280;41524;35.624;139.698;2023-04-16T23:40:15;100526.00;;;16.01;35.77
53659;BME280;41524;35.624;139.698;2023-04-16T23:45:12;100530.00;;;15.56;33.69
53659;BME280;41524;35.624;139.698;2023-04-16T23:50:11;100539.00;;;15.69;33.16
53659;BME280;41524;35.624;139.698;2023-04-16T23:55:15;100546.00;;;16.41;32.53
